createdAt,value
2022-10-07T00:01:50.846Z,78.11
2022-10-07T00:04:57.017Z,77.99
2022-10-07T00:08:02.000Z,77.90
2022-10-07T00:11:11.425Z,77.96
2022-10-07T00:14:17.850Z,77.93
2022-10-07T00:17:24.038Z,77.95
2022-10-07T00:20:28.574Z,78.28
2022-10-07T00:23:34.835Z,78.16
2022-10-07T00:26:41.348Z,78.32
2022-10-07T00:29:47.714Z,78.16
2022-10-07T00:32:53.941Z,78.13
2022-10-07T00:36:00.289Z,78.10
2022-10-07T00:39:08.795Z,78.32
2022-10-07T00:42:15.774Z,78.23
2022-10-07T00:45:22.047Z,78.38
2022-10-07T00:48:32.343Z,78.46
2022-10-07T00:51:40.307Z,78.34
2022-10-07T00:54:46.573Z,78.26
2022-10-07T00:57:56.135Z,78.37
2022-10-07T01:01:02.849Z,78.32
2022-10-07T01:04:10.076Z,78.44
2022-10-07T01:07:21.877Z,78.44
2022-10-07T01:10:37.380Z,78.29
2022-10-07T01:13:48.747Z,78.32
2022-10-07T01:17:02.294Z,78.59
2022-10-07T01:20:32.007Z,78.60
2022-10-07T01:23:58.376Z,78.68
2022-10-07T01:27:07.482Z,78.74
2022-10-07T01:30:14.789Z,78.65
2022-10-07T01:33:27.995Z,78.69
2022-10-07T01:36:38.304Z,78.42
2022-10-07T01:39:49.950Z,78.68
2022-10-07T01:42:56.954Z,78.64
2022-10-07T01:46:04.923Z,79.03
2022-10-07T01:49:11.193Z,79.03
2022-10-07T01:52:45.348Z,78.98
2022-10-07T01:56:11.998Z,79.03
2022-10-07T01:59:51.361Z,79.03
2022-10-07T02:03:21.574Z,78.95
2022-10-07T02:06:38.757Z,79.09
2022-10-07T02:09:50.784Z,79.05
2022-10-07T02:13:06.057Z,79.06
2022-10-07T02:16:18.516Z,79.02
2022-10-07T02:19:29.975Z,79.08
2022-10-07T02:22:37.262Z,78.99
2022-10-07T02:25:46.888Z,78.98
2022-10-07T02:28:55.592Z,79.14
2022-10-07T02:32:05.647Z,79.32
2022-10-07T02:35:19.050Z,79.30
2022-10-07T02:38:26.426Z,79.12
2022-10-07T02:41:41.958Z,79.24
2022-10-07T02:44:53.574Z,79.31
2022-10-07T02:48:04.407Z,79.39
2022-10-07T02:51:21.073Z,79.46
2022-10-07T02:54:34.761Z,79.39
2022-10-07T02:57:43.882Z,79.48
2022-10-07T03:00:54.506Z,79.45
2022-10-07T03:04:01.632Z,79.44
2022-10-07T03:07:08.353Z,79.38
2022-10-07T03:10:15.267Z,79.42
2022-10-07T03:13:21.468Z,79.41
2022-10-07T03:16:26.069Z,79.53
2022-10-07T03:19:32.241Z,79.47
2022-10-07T03:22:37.005Z,79.61
2022-10-07T03:25:43.135Z,79.83
2022-10-07T03:28:47.839Z,79.61
2022-10-07T03:31:54.802Z,79.69
2022-10-07T03:35:00.955Z,79.73
2022-10-07T03:38:08.412Z,79.74
2022-10-07T03:41:14.701Z,79.81
2022-10-07T03:44:22.632Z,79.66
2022-10-07T03:47:28.878Z,79.64
2022-10-07T03:50:33.328Z,79.61
2022-10-07T03:53:40.697Z,79.76
2022-10-07T03:56:46.834Z,79.81
2022-10-07T03:59:53.756Z,79.78
2022-10-07T04:03:00.005Z,79.60
2022-10-07T04:06:06.535Z,79.58
2022-10-07T04:09:15.434Z,79.74
2022-10-07T04:12:21.552Z,79.64
2022-10-07T04:15:27.767Z,79.68
2022-10-07T04:18:32.634Z,79.71
2022-10-07T04:21:38.830Z,79.86
2022-10-07T04:24:43.366Z,79.75
2022-10-07T04:27:54.230Z,79.89
2022-10-07T04:31:00.537Z,79.98
2022-10-07T04:34:07.002Z,79.90
2022-10-07T04:37:13.170Z,79.97
2022-10-07T04:40:17.684Z,79.94
2022-10-07T04:43:26.960Z,79.81
2022-10-07T04:46:33.194Z,80.00
2022-10-07T04:49:37.727Z,79.84
2022-10-07T04:52:44.564Z,79.80
2022-10-07T04:55:52.367Z,79.79
2022-10-07T04:58:58.529Z,79.87
2022-10-07T05:02:03.111Z,80.01
2022-10-07T05:05:10.798Z,79.87
2022-10-07T05:08:18.527Z,79.90
2022-10-07T05:11:26.061Z,79.83
2022-10-07T05:14:32.990Z,79.89
2022-10-07T05:17:41.207Z,79.92
2022-10-07T05:20:48.442Z,79.93
2022-10-07T05:23:54.615Z,79.98
2022-10-07T05:26:59.157Z,80.10
2022-10-07T05:30:05.722Z,80.22
2022-10-07T05:33:12.204Z,80.35
2022-10-07T05:36:18.956Z,80.12
2022-10-07T05:39:25.162Z,80.21
2022-10-07T05:42:29.736Z,80.07
2022-10-07T05:45:35.801Z,79.91
2022-10-07T05:48:42.434Z,80.13
2022-10-07T05:51:49.228Z,80.17
2022-10-07T05:54:55.405Z,80.18
2022-10-07T05:58:00.030Z,80.29
2022-10-07T06:01:13.103Z,80.32
2022-10-07T06:04:20.606Z,80.36
2022-10-07T06:07:29.283Z,80.34
2022-10-07T06:10:57.672Z,80.22
2022-10-07T06:14:04.370Z,80.37
2022-10-07T06:17:10.606Z,80.37
2022-10-07T06:20:15.283Z,80.43
2022-10-07T06:23:21.408Z,80.47
2022-10-07T06:26:27.582Z,80.39
2022-10-07T06:29:33.980Z,80.66
2022-10-07T06:32:40.106Z,80.49
2022-10-07T06:35:47.393Z,80.61
2022-10-07T06:38:54.604Z,80.44
2022-10-07T06:42:00.895Z,80.46
2022-10-07T06:45:08.594Z,80.48
2022-10-07T06:48:14.798Z,80.58
2022-10-07T06:51:20.011Z,80.63
2022-10-07T06:54:26.248Z,80.67
2022-10-07T06:57:45.339Z,80.57
2022-10-07T07:00:58.188Z,80.80
2022-10-07T07:04:04.520Z,80.94
2022-10-07T07:07:11.827Z,80.98
2022-10-07T07:10:18.130Z,81.10
2022-10-07T07:13:24.816Z,81.21
2022-10-07T07:16:31.567Z,81.01
2022-10-07T07:19:37.875Z,81.15
2022-10-07T07:22:44.332Z,81.19
2022-10-07T07:25:50.599Z,81.20
2022-10-07T07:28:58.994Z,81.47
2022-10-07T07:32:06.406Z,81.47
2022-10-07T07:35:12.974Z,81.41
2022-10-07T07:38:24.773Z,81.74
2022-10-07T07:41:33.640Z,81.79
2022-10-07T07:44:40.357Z,81.91
2022-10-07T07:47:49.613Z,82.22
2022-10-07T07:50:55.886Z,82.17
2022-10-07T07:54:02.453Z,82.24
2022-10-07T07:57:09.046Z,82.46
2022-10-07T08:00:16.458Z,82.53
2022-10-07T08:03:22.952Z,82.68
2022-10-07T08:06:30.352Z,82.83
2022-10-07T08:09:36.608Z,82.99
2022-10-07T08:12:42.760Z,82.97
2022-10-07T08:15:47.717Z,83.18
2022-10-07T08:18:55.546Z,83.43
2022-10-07T08:22:01.820Z,83.29
2022-10-07T08:25:09.571Z,83.26
2022-10-07T08:28:16.742Z,83.54
2022-10-07T08:31:23.439Z,83.60
2022-10-07T08:34:29.727Z,83.55
2022-10-07T08:37:35.808Z,83.51
2022-10-07T08:40:49.699Z,83.72
2022-10-07T08:43:59.356Z,83.62
2022-10-07T08:47:17.031Z,83.63
2022-10-07T08:50:27.795Z,83.53
2022-10-07T08:53:36.793Z,83.59
2022-10-07T08:56:43.962Z,83.52
2022-10-07T08:59:56.396Z,83.76
2022-10-07T09:03:13.602Z,83.63
2022-10-07T09:06:33.037Z,83.49
2022-10-07T09:09:44.925Z,83.48
2022-10-07T09:12:56.526Z,83.51
2022-10-07T09:16:10.320Z,83.46
2022-10-07T09:19:23.748Z,83.49
2022-10-07T09:22:34.329Z,83.34
2022-10-07T09:25:45.238Z,83.26
2022-10-07T09:28:51.560Z,83.23
2022-10-07T09:31:59.265Z,83.03
2022-10-07T09:35:06.227Z,82.98
2022-10-07T09:38:12.471Z,83.07
2022-10-07T09:41:26.819Z,82.92
2022-10-07T09:44:40.239Z,82.34
2022-10-07T09:47:52.729Z,82.15
2022-10-07T09:51:16.236Z,82.01
2022-10-07T09:54:22.943Z,82.06
2022-10-07T09:57:38.872Z,82.02
2022-10-07T10:00:47.962Z,81.73
2022-10-07T10:04:01.062Z,81.71
2022-10-07T10:07:19.605Z,81.55
2022-10-07T10:10:28.619Z,81.23
2022-10-07T10:14:36.272Z,80.90
2022-10-07T10:17:43.262Z,80.84
2022-10-07T10:20:49.446Z,80.81
2022-10-07T10:23:58.252Z,80.49
2022-10-07T10:27:12.672Z,80.19
2022-10-07T10:30:23.477Z,79.80
2022-10-07T10:33:37.528Z,79.85
2022-10-07T10:36:51.696Z,79.40
2022-10-07T10:40:09.812Z,79.35
2022-10-07T10:43:23.983Z,79.16
2022-10-07T10:46:49.662Z,79.12
2022-10-07T10:50:08.317Z,78.47
2022-10-07T10:53:27.654Z,78.12
2022-10-07T10:56:42.590Z,77.96
2022-10-07T11:00:04.793Z,77.65
2022-10-07T11:03:27.956Z,77.28
2022-10-07T11:06:38.341Z,76.87
2022-10-07T11:09:49.840Z,76.68
2022-10-07T11:12:59.284Z,76.49
2022-10-07T11:16:12.589Z,76.24
2022-10-07T11:19:24.185Z,76.15
2022-10-07T11:22:40.603Z,75.98
2022-10-07T11:25:53.838Z,75.29
2022-10-07T11:29:03.353Z,74.91
2022-10-07T11:32:14.337Z,74.87
2022-10-07T11:35:30.224Z,74.57
2022-10-07T11:38:39.044Z,74.26
2022-10-07T11:41:53.326Z,73.74
2022-10-07T11:45:03.769Z,73.47
2022-10-07T11:48:15.898Z,73.26
2022-10-07T11:51:28.792Z,72.94
2022-10-07T11:54:44.704Z,72.57
2022-10-07T11:57:55.865Z,72.16
2022-10-07T12:01:47.893Z,72.06
2022-10-07T12:04:54.200Z,71.93
2022-10-07T12:08:02.291Z,71.82
2022-10-07T12:11:45.822Z,71.71
2022-10-07T12:15:02.389Z,71.46
2022-10-07T12:18:28.581Z,71.35
2022-10-07T12:22:11.918Z,70.89
2022-10-07T12:25:33.256Z,70.49
2022-10-07T12:28:48.820Z,70.32
2022-10-07T12:31:53.410Z,69.94
2022-10-07T12:35:19.665Z,69.50
2022-10-07T12:38:28.081Z,69.27
2022-10-07T12:41:44.064Z,68.85
2022-10-07T12:44:52.790Z,68.66
2022-10-07T12:48:02.714Z,68.24
2022-10-07T12:51:19.878Z,67.77
2022-10-07T12:54:32.591Z,68.06
2022-10-07T12:57:42.188Z,67.87
2022-10-07T13:01:01.214Z,67.69
2022-10-07T13:04:31.854Z,67.35
2022-10-07T13:08:21.246Z,67.08
2022-10-07T13:12:11.567Z,66.75
2022-10-07T13:15:33.838Z,66.84
2022-10-07T13:18:45.542Z,66.47
2022-10-07T13:22:00.959Z,66.44
2022-10-07T13:25:13.140Z,66.39
2022-10-07T13:28:22.485Z,66.16
2022-10-07T13:31:30.722Z,65.88
2022-10-07T13:34:38.238Z,65.94
2022-10-07T13:37:48.869Z,65.77
2022-10-07T13:41:04.757Z,65.64
2022-10-07T13:44:15.462Z,65.42
2022-10-07T13:47:22.808Z,65.15
2022-10-07T13:50:30.852Z,65.10
2022-10-07T13:53:38.623Z,64.95
2022-10-07T13:56:45.903Z,64.79
2022-10-07T13:59:53.084Z,64.81
2022-10-07T14:02:59.418Z,64.69
2022-10-07T14:06:05.717Z,64.50
2022-10-07T14:09:22.568Z,64.40
2022-10-07T14:12:35.261Z,64.29
2022-10-07T14:15:51.047Z,64.15
2022-10-07T14:18:57.619Z,64.14
2022-10-07T14:22:06.050Z,64.13
2022-10-07T14:25:21.014Z,64.07
2022-10-07T14:28:34.721Z,63.99
2022-10-07T14:31:58.734Z,63.84
2022-10-07T14:35:19.967Z,63.58
2022-10-07T14:38:30.287Z,63.61
2022-10-07T14:41:36.620Z,63.71
2022-10-07T14:44:44.121Z,63.68
2022-10-07T14:47:51.322Z,63.59
2022-10-07T14:50:57.445Z,63.63
2022-10-07T14:54:08.096Z,63.60
2022-10-07T14:57:14.323Z,63.52
2022-10-07T15:00:23.156Z,63.47
2022-10-07T15:03:31.055Z,63.34
2022-10-07T15:06:38.079Z,63.38
2022-10-07T15:09:45.181Z,63.49
2022-10-07T15:12:51.346Z,63.55
2022-10-07T15:15:57.590Z,63.57
2022-10-07T15:19:04.075Z,63.57
2022-10-07T15:22:10.495Z,63.67
2022-10-07T15:25:18.137Z,63.61
2022-10-07T15:28:24.434Z,63.68
2022-10-07T15:31:31.789Z,63.91
2022-10-07T15:34:37.896Z,63.87
2022-10-07T15:37:46.034Z,63.92
2022-10-07T15:40:57.193Z,64.18
2022-10-07T15:44:04.951Z,64.14
2022-10-07T15:47:11.391Z,64.16
2022-10-07T15:50:17.644Z,64.39
2022-10-07T15:53:25.545Z,64.67
2022-10-07T15:56:31.912Z,64.65
2022-10-07T15:59:38.204Z,64.88
2022-10-07T16:02:44.880Z,65.00
2022-10-07T16:05:58.540Z,65.07
2022-10-07T16:09:05.870Z,65.28
2022-10-07T16:12:11.989Z,65.46
2022-10-07T16:15:18.392Z,65.64
2022-10-07T16:18:24.605Z,65.68
2022-10-07T16:21:33.190Z,65.97
2022-10-07T16:24:39.867Z,66.00
2022-10-07T16:28:03.825Z,66.29
2022-10-07T16:31:10.228Z,66.60
2022-10-07T16:34:18.485Z,66.67
2022-10-07T16:37:24.457Z,66.69
2022-10-07T16:40:28.969Z,66.93
2022-10-07T16:43:35.973Z,67.14
2022-10-07T16:46:42.803Z,67.30
2022-10-07T16:49:48.985Z,67.57
2022-10-07T16:52:55.034Z,67.55
2022-10-07T16:56:02.083Z,67.62
2022-10-07T16:59:09.895Z,67.88
2022-10-07T17:02:17.117Z,67.97
2022-10-07T17:05:23.094Z,68.06
2022-10-07T17:08:29.491Z,68.32
2022-10-07T17:11:38.170Z,68.51
2022-10-07T17:14:44.323Z,68.77
2022-10-07T17:17:53.897Z,68.73
2022-10-07T17:21:00.243Z,68.76
2022-10-07T17:24:06.890Z,68.96
2022-10-07T17:27:12.871Z,68.97
2022-10-07T17:30:17.629Z,69.26
2022-10-07T17:33:23.789Z,69.27
2022-10-07T17:36:32.157Z,69.21
2022-10-07T17:39:38.252Z,69.39
2022-10-07T17:42:42.799Z,69.41
2022-10-07T17:45:49.338Z,69.42
2022-10-07T17:48:57.513Z,69.54
2022-10-07T17:52:03.555Z,69.70
2022-10-07T17:55:09.134Z,69.71
2022-10-07T17:58:15.327Z,69.85
2022-10-07T18:01:24.284Z,69.86
2022-10-07T18:04:31.242Z,69.90
2022-10-07T18:07:37.409Z,70.09
2022-10-07T18:10:43.556Z,70.22
2022-10-07T18:14:07.068Z,70.16
2022-10-07T18:17:13.640Z,70.51
2022-10-07T18:20:21.402Z,70.55
2022-10-07T18:23:29.552Z,70.70
2022-10-07T18:26:35.614Z,70.83
2022-10-07T18:29:40.207Z,70.92
2022-10-07T18:32:46.274Z,70.99
2022-10-07T18:35:50.830Z,71.08
2022-10-07T18:38:56.715Z,71.28
2022-10-07T18:42:04.552Z,71.32
2022-10-07T18:45:12.244Z,71.32
2022-10-07T18:48:18.416Z,71.70
2022-10-07T18:51:24.595Z,71.91
2022-10-07T18:54:30.674Z,71.91
2022-10-07T18:57:35.129Z,71.81
2022-10-07T19:00:44.245Z,71.94
2022-10-07T19:03:55.248Z,71.87
2022-10-07T19:07:02.723Z,71.91
2022-10-07T19:10:10.985Z,72.00
2022-10-07T19:13:35.413Z,71.95
2022-10-07T19:16:43.074Z,72.09
2022-10-07T19:19:49.259Z,71.97
2022-10-07T19:22:53.803Z,71.98
2022-10-07T19:26:01.950Z,72.17
2022-10-07T19:29:10.227Z,72.30
2022-10-07T19:32:16.304Z,72.27
2022-10-07T19:35:20.840Z,72.44
2022-10-07T19:38:27.388Z,72.66
2022-10-07T19:41:36.115Z,72.51
2022-10-07T19:44:43.351Z,72.52
2022-10-07T19:47:49.623Z,72.52
2022-10-07T19:51:02.103Z,72.55
2022-10-07T19:54:12.088Z,72.70
2022-10-07T19:57:17.968Z,72.81
2022-10-07T20:00:25.733Z,72.92
2022-10-07T20:03:31.874Z,72.94
2022-10-07T20:06:37.666Z,72.94
2022-10-07T20:09:42.155Z,72.85
2022-10-07T20:12:48.265Z,73.00
2022-10-07T20:15:53.202Z,73.03
2022-10-07T20:19:05.642Z,73.09
2022-10-07T20:22:12.759Z,73.11
2022-10-07T20:25:19.027Z,73.07
2022-10-07T20:28:25.549Z,73.01
2022-10-07T20:31:34.056Z,73.15
2022-10-07T20:34:40.041Z,73.32
2022-10-07T20:37:46.174Z,73.36
2022-10-07T20:41:14.188Z,73.34
2022-10-07T20:44:20.862Z,73.29
2022-10-07T20:47:30.080Z,73.41
2022-10-07T20:50:36.338Z,73.39
2022-10-07T20:53:42.323Z,73.38
2022-10-07T20:56:49.013Z,73.52
2022-10-07T20:59:55.374Z,73.50
2022-10-07T21:03:01.748Z,73.50
2022-10-07T21:06:09.647Z,73.50
2022-10-07T21:09:16.063Z,73.64
2022-10-07T21:12:22.495Z,73.63
2022-10-07T21:15:29.418Z,73.75
2022-10-07T21:18:35.640Z,73.79
2022-10-07T21:21:40.066Z,73.96
2022-10-07T21:24:46.648Z,74.03
2022-10-07T21:27:53.725Z,74.03
2022-10-07T21:31:01.171Z,73.83
2022-10-07T21:34:08.757Z,73.98
2022-10-07T21:37:15.027Z,73.92
2022-10-07T21:40:21.948Z,74.10
2022-10-07T21:43:28.228Z,74.07
2022-10-07T21:46:36.860Z,74.18
2022-10-07T21:49:43.023Z,74.34
2022-10-07T21:52:47.805Z,74.27
2022-10-07T21:55:55.021Z,74.22
2022-10-07T21:59:03.752Z,74.49
2022-10-07T22:02:10.111Z,74.21
2022-10-07T22:05:16.380Z,74.22
2022-10-07T22:08:39.541Z,74.24
2022-10-07T22:11:46.015Z,74.41
2022-10-07T22:14:52.359Z,74.48
2022-10-07T22:17:58.419Z,74.47
2022-10-07T22:21:12.926Z,74.57
2022-10-07T22:24:19.066Z,74.54
2022-10-07T22:27:25.091Z,74.45
2022-10-07T22:30:31.168Z,74.49
2022-10-07T22:33:38.528Z,74.63
2022-10-07T22:36:44.401Z,74.58
2022-10-07T22:39:50.476Z,74.42
2022-10-07T22:42:56.557Z,74.65
2022-10-07T22:46:02.846Z,74.78
2022-10-07T22:49:08.964Z,74.76
2022-10-07T22:52:15.253Z,74.75
2022-10-07T22:55:21.457Z,74.83
2022-10-07T22:58:26.047Z,74.87
2022-10-07T23:01:33.326Z,74.69
2022-10-07T23:04:39.461Z,74.95
2022-10-07T23:07:45.457Z,75.03
2022-10-07T23:10:59.412Z,74.99
2022-10-07T23:14:05.744Z,74.97
2022-10-07T23:17:12.212Z,74.97
2022-10-07T23:20:19.307Z,74.92
2022-10-07T23:23:25.459Z,75.19
2022-10-07T23:26:30.445Z,75.22
2022-10-07T23:29:36.566Z,75.18
2022-10-07T23:32:45.888Z,75.06
2022-10-07T23:35:56.064Z,75.19
2022-10-07T23:39:02.835Z,75.24
2022-10-07T23:42:08.896Z,75.30
2022-10-07T23:45:15.452Z,75.21
2022-10-07T23:48:21.867Z,75.29
2022-10-07T23:51:29.003Z,75.34
2022-10-07T23:54:35.118Z,75.33
2022-10-07T23:57:41.800Z,75.42
